Monday, December 18, 2017, 7:57 AM EST
Back to Local

KPHL, Philadelphia International Airpt

Location: Philadelphia, PA, United States Lat: 39.867
Local Time: 7:57 AM EST (12:57 GMT) Lon: -75.233
Time Zone: US/Eastern Elev: 19 ft

Show me the last for .
Show Decoded

2017-12-18 06:54 METAR KPHL 181154Z 00000KT 7SM BKN085 BKN100 BKN300 04/02 A3012 RMK SLP198 60000
                 T00390017 10044 20028 58006 =
2017-12-18 05:54 METAR KPHL 181054Z 00000KT 7SM FEW040 BKN050 OVC070 04/02 A3013 RMK AO2 SLP201
                 T00390017 $ =
2017-12-18 04:54 METAR KPHL 180954Z 00000KT 8SM FEW033 OVC044 04/01 A3014 RMK SLP204 T00390011 =
2017-12-18 04:12 METAR KPHL 180912Z 09003KT 8SM BKN045 OVC055 04/01 A3013 RMK AO2 T00390011 $ =
2017-12-18 03:54 METAR KPHL 180854Z 00000KT 10SM BKN050 OVC065 04/01 A3014 RMK AO2 SLP204 60000
                 T00390011 58006 $ =
2017-12-18 02:54 METAR KPHL 180754Z 00000KT 10SM BKN050 OVC070 04/01 A3015 RMK AO2 RAE02 SLP208
                 P0000 T00390006 $ =
2017-12-18 02:02 METAR KPHL 180702Z 04006KT 10SM BKN050 OVC065 03/00 A3015 RMK AO2 RAE02 P0000
                 T00330000 $ =
2017-12-18 01:54 METAR KPHL 180654Z 03005KT 8SM -RA BKN055 OVC070 03/00 A3015 RMK AO2 RAB49
                 SLP210 P0000 T00330000 $ =
2017-12-18 01:43 METAR KPHL 180643Z 03004KT 8SM BKN055 OVC070 03/00 A3015 RMK AO2 T00330000 $ =
2017-12-18 00:54 METAR KPHL 180554Z 01004KT 10SM SCT070 BKN080 OVC100 03/00 A3016 RMK AO2 SLP211
                 T00280000 10044 20028 56019 $ =
2017-12-17 23:54 METAR KPHL 180454Z 08005KT 10SM BKN070 OVC085 04/00 A3017 RMK AO2 SLP215
                 T00390000 400671011 $ =
2017-12-17 22:54 METAR KPHL 180354Z 05004KT 10SM BKN085 OVC100 03/M01 A3020 RMK AO2 SLP225
                 T00331006 $ =
2017-12-17 21:54 METAR KPHL 180254Z 05007KT 10SM BKN100 OVC160 04/M01 A3021 RMK AO2 SLP229
                 T00391006 56012 $ =
2017-12-17 20:54 METAR KPHL 180154Z 08006KT 10SM BKN120 OVC250 04/M01 A3022 RMK AO2 SLP233
                 T00391011 $ =
2017-12-17 19:54 METAR KPHL 180054Z 06005KT 10SM BKN110 OVC250 04/M02 A3023 RMK AO2 SLP235
                 T00391017 $ =
2017-12-17 18:54 METAR KPHL 172354Z 08005KT 10SM BKN180 OVC250 04/M01 A3025 RMK AO2 SLP242
                 T00441011 10067 20044 53009 $ =
2017-12-17 17:54 METAR KPHL 172254Z 06004KT 10SM BKN180 OVC250 05/M02 A3024 RMK AO2 SLP239
                 T00501017 $ =
2017-12-17 16:54 METAR KPHL 172154Z 04004KT 10SM BKN180 OVC250 06/M02 A3022 RMK AO2 SLP233
                 T00561017 $ =
2017-12-17 15:54 METAR KPHL 172054Z 00000KT 10SM BKN180 OVC260 06/M02 A3022 RMK AO2 SLP232
                 T00611022 55008 $ =
2017-12-17 14:54 METAR KPHL 171954Z 00000KT 10SM BKN180 OVC260 07/M02 A3022 RMK AO2 SLP231
                 T00671022 $ =
2017-12-17 13:54 METAR KPHL 171854Z 00000KT 10SM BKN160 BKN210 OVC260 06/M03 A3022 RMK AO2 SLP233
                 T00611028 $ =
2017-12-17 12:54 METAR KPHL 171754Z 00000KT 10SM FEW210 OVC260 06/M02 A3024 RMK AO2 SLP240
                 T00561022 10061 20000 58017 $ =
2017-12-17 11:54 METAR KPHL 171654Z 10004KT 10SM FEW220 BKN260 05/M03 A3027 RMK AO2 SLP249
                 T00501028 $ =
2017-12-17 10:54 METAR KPHL 171554Z 06005KT 10SM FEW230 BKN260 04/M03 A3029 RMK AO2 SLP257
                 T00441028 $ =
2017-12-17 09:54 METAR KPHL 171454Z 08006KT 10SM FEW220 BKN250 03/M04 A3029 RMK AO2 SLP257
                 T00281039 52005 $ =
2017-12-17 08:54 METAR KPHL 171354Z 07005KT 10SM BKN250 02/M03 A3029 RMK AO2 SLP255 T00171033 $ =

Support USWX by starting your Amazon purchase here.